sensor_id;sensor_type;location;lat;lon;timestamp;P1;durP1;ratioP1;P2;durP2;ratioP2
3004;SDS011;1512;51.486;6.610;2022-12-05T00:02:01;23.50;;;14.47;;
3004;SDS011;1512;51.486;6.610;2022-12-05T00:06:10;21.03;;;12.67;;
3004;SDS011;1512;51.486;6.610;2022-12-05T00:10:19;21.33;;;13.30;;
3004;SDS011;1512;51.486;6.610;2022-12-05T00:18:43;24.13;;;13.03;;
3004;SDS011;1512;51.486;6.610;2022-12-05T00:22:53;27.75;;;13.35;;
3004;SDS011;1512;51.486;6.610;2022-12-05T00:27:02;20.00;;;11.70;;
3004;SDS011;1512;51.486;6.610;2022-12-05T00:31:12;31.47;;;15.50;;
3004;SDS011;1512;51.486;6.610;2022-12-05T00:35:22;23.10;;;14.57;;
3004;SDS011;1512;51.486;6.610;2022-12-05T00:39:50;27.33;;;14.07;;
3004;SDS011;1512;51.486;6.610;2022-12-05T00:43:59;21.93;;;12.97;;
3004;SDS011;1512;51.486;6.610;2022-12-05T00:48:09;17.90;;;12.27;;
3004;SDS011;1512;51.486;6.610;2022-12-05T00:52:17;24.83;;;15.67;;
3004;SDS011;1512;51.486;6.610;2022-12-05T00:56:26;26.27;;;14.03;;
3004;SDS011;1512;51.486;6.610;2022-12-05T01:00:36;21.67;;;12.63;;
3004;SDS011;1512;51.486;6.610;2022-12-05T01:04:45;22.20;;;14.53;;
3004;SDS011;1512;51.486;6.610;2022-12-05T01:08:54;32.93;;;14.53;;
3004;SDS011;1512;51.486;6.610;2022-12-05T01:17:32;26.37;;;13.20;;
3004;SDS011;1512;51.486;6.610;2022-12-05T01:21:42;29.90;;;15.57;;
3004;SDS011;1512;51.486;6.610;2022-12-05T01:25:51;18.03;;;12.87;;
3004;SDS011;1512;51.486;6.610;2022-12-05T01:29:59;20.97;;;16.00;;
3004;SDS011;1512;51.486;6.610;2022-12-05T01:34:12;27.93;;;16.73;;
3004;SDS011;1512;51.486;6.610;2022-12-05T01:38:22;23.30;;;14.10;;
3004;SDS011;1512;51.486;6.610;2022-12-05T01:42:31;21.23;;;11.83;;
3004;SDS011;1512;51.486;6.610;2022-12-05T01:46:43;31.30;;;15.47;;
3004;SDS011;1512;51.486;6.610;2022-12-05T01:50:57;26.13;;;14.00;;
3004;SDS011;1512;51.486;6.610;2022-12-05T01:59:35;24.23;;;13.33;;
3004;SDS011;1512;51.486;6.610;2022-12-05T02:03:49;24.00;;;13.97;;
3004;SDS011;1512;51.486;6.610;2022-12-05T02:08:01;27.10;;;14.27;;
3004;SDS011;1512;51.486;6.610;2022-12-05T02:12:12;29.33;;;15.47;;
3004;SDS011;1512;51.486;6.610;2022-12-05T02:16:31;23.63;;;14.60;;
3004;SDS011;1512;51.486;6.610;2022-12-05T02:25:26;23.87;;;12.30;;
3004;SDS011;1512;51.486;6.610;2022-12-05T02:30:00;22.57;;;15.00;;
3004;SDS011;1512;51.486;6.610;2022-12-05T02:34:25;22.53;;;14.07;;
3004;SDS011;1512;51.486;6.610;2022-12-05T02:47:47;23.30;;;14.27;;
3004;SDS011;1512;51.486;6.610;2022-12-05T02:51:54;22.80;;;12.37;;
3004;SDS011;1512;51.486;6.610;2022-12-05T02:56:05;20.87;;;12.77;;
3004;SDS011;1512;51.486;6.610;2022-12-05T03:00:14;33.33;;;16.93;;
3004;SDS011;1512;51.486;6.610;2022-12-05T03:04:24;15.90;;;11.90;;
3004;SDS011;1512;51.486;6.610;2022-12-05T03:08:40;19.73;;;11.20;;
3004;SDS011;1512;51.486;6.610;2022-12-05T03:12:47;27.13;;;12.97;;
3004;SDS011;1512;51.486;6.610;2022-12-05T03:16:59;26.10;;;14.40;;
3004;SDS011;1512;51.486;6.610;2022-12-05T03:21:14;24.53;;;14.90;;
3004;SDS011;1512;51.486;6.610;2022-12-05T03:25:24;21.03;;;12.47;;
3004;SDS011;1512;51.486;6.610;2022-12-05T03:29:41;15.70;;;11.18;;
3004;SDS011;1512;51.486;6.610;2022-12-05T03:34:03;23.70;;;12.83;;
3004;SDS011;1512;51.486;6.610;2022-12-05T03:38:15;21.63;;;12.53;;
3004;SDS011;1512;51.486;6.610;2022-12-05T03:42:30;21.57;;;12.03;;
3004;SDS011;1512;51.486;6.610;2022-12-05T03:46:49;21.87;;;11.90;;
3004;SDS011;1512;51.486;6.610;2022-12-05T03:51:02;25.23;;;12.87;;
3004;SDS011;1512;51.486;6.610;2022-12-05T03:55:14;29.20;;;13.60;;
3004;SDS011;1512;51.486;6.610;2022-12-05T04:03:36;32.20;;;13.07;;
3004;SDS011;1512;51.486;6.610;2022-12-05T04:07:48;24.87;;;12.50;;
3004;SDS011;1512;51.486;6.610;2022-12-05T04:12:06;18.90;;;11.53;;
3004;SDS011;1512;51.486;6.610;2022-12-05T04:16:22;26.27;;;14.37;;
3004;SDS011;1512;51.486;6.610;2022-12-05T04:20:46;26.30;;;13.67;;
3004;SDS011;1512;51.486;6.610;2022-12-05T04:25:15;24.47;;;11.90;;
3004;SDS011;1512;51.486;6.610;2022-12-05T04:29:43;32.07;;;12.37;;
3004;SDS011;1512;51.486;6.610;2022-12-05T04:33:59;28.23;;;12.17;;
3004;SDS011;1512;51.486;6.610;2022-12-05T04:38:12;26.63;;;13.33;;
3004;SDS011;1512;51.486;6.610;2022-12-05T04:42:28;32.40;;;11.20;;
3004;SDS011;1512;51.486;6.610;2022-12-05T04:46:40;19.97;;;12.63;;
3004;SDS011;1512;51.486;6.610;2022-12-05T04:50:52;23.73;;;13.00;;
3004;SDS011;1512;51.486;6.610;2022-12-05T04:55:09;23.13;;;14.30;;
3004;SDS011;1512;51.486;6.610;2022-12-05T04:59:20;16.60;;;11.83;;
3004;SDS011;1512;51.486;6.610;2022-12-05T05:08:02;18.70;;;10.33;;
3004;SDS011;1512;51.486;6.610;2022-12-05T05:12:11;22.67;;;11.53;;
3004;SDS011;1512;51.486;6.610;2022-12-05T05:16:23;17.47;;;11.17;;
3004;SDS011;1512;51.486;6.610;2022-12-05T05:20:33;19.50;;;11.27;;
3004;SDS011;1512;51.486;6.610;2022-12-05T05:24:42;27.27;;;12.43;;
3004;SDS011;1512;51.486;6.610;2022-12-05T05:28:51;26.90;;;12.90;;
3004;SDS011;1512;51.486;6.610;2022-12-05T05:33:00;22.53;;;11.60;;
3004;SDS011;1512;51.486;6.610;2022-12-05T05:37:08;23.43;;;12.37;;
3004;SDS011;1512;51.486;6.610;2022-12-05T05:41:19;19.50;;;11.17;;
3004;SDS011;1512;51.486;6.610;2022-12-05T05:45:29;19.87;;;11.20;;
3004;SDS011;1512;51.486;6.610;2022-12-05T05:49:37;18.67;;;10.50;;
3004;SDS011;1512;51.486;6.610;2022-12-05T05:53:46;15.13;;;11.10;;
3004;SDS011;1512;51.486;6.610;2022-12-05T05:57:55;26.80;;;11.90;;
3004;SDS011;1512;51.486;6.610;2022-12-05T06:02:04;19.83;;;11.87;;
3004;SDS011;1512;51.486;6.610;2022-12-05T06:06:13;18.90;;;11.47;;
3004;SDS011;1512;51.486;6.610;2022-12-05T06:10:22;22.90;;;11.10;;
3004;SDS011;1512;51.486;6.610;2022-12-05T06:14:31;15.70;;;10.33;;
3004;SDS011;1512;51.486;6.610;2022-12-05T06:18:40;18.17;;;10.93;;
3004;SDS011;1512;51.486;6.610;2022-12-05T06:22:48;17.67;;;12.07;;
3004;SDS011;1512;51.486;6.610;2022-12-05T06:26:57;21.30;;;12.63;;
3004;SDS011;1512;51.486;6.610;2022-12-05T06:31:12;17.57;;;11.73;;
3004;SDS011;1512;51.486;6.610;2022-12-05T06:35:18;13.90;;;9.50;;
3004;SDS011;1512;51.486;6.610;2022-12-05T06:39:26;19.67;;;10.57;;
3004;SDS011;1512;51.486;6.610;2022-12-05T06:43:35;19.57;;;9.80;;
3004;SDS011;1512;51.486;6.610;2022-12-05T06:47:44;17.13;;;11.10;;
3004;SDS011;1512;51.486;6.610;2022-12-05T06:51:52;22.03;;;12.90;;
3004;SDS011;1512;51.486;6.610;2022-12-05T06:56:02;15.03;;;9.43;;
3004;SDS011;1512;51.486;6.610;2022-12-05T07:00:14;16.87;;;9.60;;
3004;SDS011;1512;51.486;6.610;2022-12-05T07:04:44;15.47;;;11.30;;
3004;SDS011;1512;51.486;6.610;2022-12-05T07:08:53;13.07;;;9.83;;
3004;SDS011;1512;51.486;6.610;2022-12-05T07:13:02;18.07;;;8.50;;
3004;SDS011;1512;51.486;6.610;2022-12-05T07:17:11;15.60;;;10.53;;
3004;SDS011;1512;51.486;6.610;2022-12-05T07:21:19;11.37;;;8.83;;
3004;SDS011;1512;51.486;6.610;2022-12-05T07:25:28;15.90;;;9.53;;
3004;SDS011;1512;51.486;6.610;2022-12-05T07:29:37;16.93;;;9.30;;
3004;SDS011;1512;51.486;6.610;2022-12-05T07:33:45;13.03;;;8.60;;
3004;SDS011;1512;51.486;6.610;2022-12-05T07:42:22;17.00;;;9.37;;
3004;SDS011;1512;51.486;6.610;2022-12-05T07:46:31;12.23;;;7.60;;
3004;SDS011;1512;51.486;6.610;2022-12-05T07:55:28;16.43;;;10.40;;
3004;SDS011;1512;51.486;6.610;2022-12-05T07:59:37;14.43;;;8.53;;
3004;SDS011;1512;51.486;6.610;2022-12-05T08:03:46;16.37;;;8.80;;
3004;SDS011;1512;51.486;6.610;2022-12-05T08:07:55;10.97;;;8.20;;
3004;SDS011;1512;51.486;6.610;2022-12-05T08:12:04;10.03;;;7.60;;
3004;SDS011;1512;51.486;6.610;2022-12-05T08:16:13;11.33;;;9.07;;
3004;SDS011;1512;51.486;6.610;2022-12-05T08:20:24;17.23;;;9.93;;
3004;SDS011;1512;51.486;6.610;2022-12-05T08:24:32;15.23;;;8.87;;
3004;SDS011;1512;51.486;6.610;2022-12-05T08:28:41;12.30;;;9.50;;
3004;SDS011;1512;51.486;6.610;2022-12-05T08:32:51;11.33;;;8.30;;
3004;SDS011;1512;51.486;6.610;2022-12-05T08:37:00;12.03;;;8.90;;
3004;SDS011;1512;51.486;6.610;2022-12-05T08:41:10;16.90;;;7.87;;
3004;SDS011;1512;51.486;6.610;2022-12-05T08:45:21;14.20;;;7.97;;
3004;SDS011;1512;51.486;6.610;2022-12-05T08:49:29;18.90;;;9.90;;
3004;SDS011;1512;51.486;6.610;2022-12-05T08:53:38;13.57;;;8.47;;
3004;SDS011;1512;51.486;6.610;2022-12-05T08:57:50;12.80;;;9.00;;
3004;SDS011;1512;51.486;6.610;2022-12-05T09:01:59;10.37;;;7.80;;
3004;SDS011;1512;51.486;6.610;2022-12-05T09:06:08;13.17;;;9.63;;
3004;SDS011;1512;51.486;6.610;2022-12-05T09:10:19;11.83;;;8.43;;
3004;SDS011;1512;51.486;6.610;2022-12-05T09:14:28;15.20;;;8.30;;
3004;SDS011;1512;51.486;6.610;2022-12-05T09:18:38;13.72;;;8.35;;
3004;SDS011;1512;51.486;6.610;2022-12-05T09:22:47;18.00;;;10.20;;
3004;SDS011;1512;51.486;6.610;2022-12-05T09:26:55;14.17;;;9.70;;
3004;SDS011;1512;51.486;6.610;2022-12-05T09:31:05;13.60;;;9.13;;
3004;SDS011;1512;51.486;6.610;2022-12-05T09:35:16;11.23;;;6.97;;
3004;SDS011;1512;51.486;6.610;2022-12-05T09:39:25;14.70;;;8.87;;
3004;SDS011;1512;51.486;6.610;2022-12-05T09:48:11;9.10;;;7.20;;
3004;SDS011;1512;51.486;6.610;2022-12-05T09:52:28;14.10;;;8.60;;
3004;SDS011;1512;51.486;6.610;2022-12-05T10:05:24;14.13;;;9.60;;
3004;SDS011;1512;51.486;6.610;2022-12-05T10:18:38;19.53;;;9.60;;
3004;SDS011;1512;51.486;6.610;2022-12-05T10:22:56;13.27;;;9.77;;
3004;SDS011;1512;51.486;6.610;2022-12-05T10:27:03;9.70;;;6.77;;
3004;SDS011;1512;51.486;6.610;2022-12-05T10:31:16;11.53;;;6.83;;
3004;SDS011;1512;51.486;6.610;2022-12-05T10:35:27;11.80;;;7.33;;
3004;SDS011;1512;51.486;6.610;2022-12-05T10:39:47;8.60;;;6.43;;
3004;SDS011;1512;51.486;6.610;2022-12-05T10:43:58;8.93;;;6.63;;
3004;SDS011;1512;51.486;6.610;2022-12-05T10:52:38;9.70;;;6.87;;
3004;SDS011;1512;51.486;6.610;2022-12-05T10:56:47;9.30;;;6.90;;
3004;SDS011;1512;51.486;6.610;2022-12-05T11:01:08;10.73;;;7.73;;
3004;SDS011;1512;51.486;6.610;2022-12-05T11:05:26;11.67;;;8.57;;
3004;SDS011;1512;51.486;6.610;2022-12-05T11:09:36;9.63;;;8.03;;
3004;SDS011;1512;51.486;6.610;2022-12-05T11:13:53;12.37;;;9.73;;
3004;SDS011;1512;51.486;6.610;2022-12-05T11:18:16;7.80;;;6.97;;
3004;SDS011;1512;51.486;6.610;2022-12-05T11:22:31;10.97;;;6.10;;
3004;SDS011;1512;51.486;6.610;2022-12-05T11:26:41;10.50;;;7.40;;
3004;SDS011;1512;51.486;6.610;2022-12-05T11:39:30;9.40;;;8.50;;
3004;SDS011;1512;51.486;6.610;2022-12-05T12:05:17;9.73;;;8.00;;
3004;SDS011;1512;51.486;6.610;2022-12-05T12:09:41;7.90;;;6.60;;
3004;SDS011;1512;51.486;6.610;2022-12-05T12:23:00;10.10;;;7.60;;
3004;SDS011;1512;51.486;6.610;2022-12-05T12:31:49;11.55;;;7.58;;
3004;SDS011;1512;51.486;6.610;2022-12-05T12:36:11;9.83;;;7.67;;
3004;SDS011;1512;51.486;6.610;2022-12-05T12:45:05;9.80;;;6.50;;
3004;SDS011;1512;51.486;6.610;2022-12-05T12:53:49;10.93;;;8.00;;
3004;SDS011;1512;51.486;6.610;2022-12-05T13:02:22;10.47;;;8.83;;
3004;SDS011;1512;51.486;6.610;2022-12-05T13:06:44;11.47;;;8.67;;
3004;SDS011;1512;51.486;6.610;2022-12-05T13:10:50;11.85;;;7.97;;
3004;SDS011;1512;51.486;6.610;2022-12-05T13:15:01;10.77;;;8.93;;
3004;SDS011;1512;51.486;6.610;2022-12-05T13:19:25;10.20;;;8.57;;
3004;SDS011;1512;51.486;6.610;2022-12-05T13:23:33;15.97;;;10.80;;
3004;SDS011;1512;51.486;6.610;2022-12-05T13:27:53;11.30;;;8.40;;
3004;SDS011;1512;51.486;6.610;2022-12-05T13:32:04;8.13;;;7.23;;
3004;SDS011;1512;51.486;6.610;2022-12-05T13:36:17;13.60;;;10.70;;
3004;SDS011;1512;51.486;6.610;2022-12-05T13:40:51;10.20;;;9.13;;
3004;SDS011;1512;51.486;6.610;2022-12-05T13:49:48;10.73;;;8.87;;
3004;SDS011;1512;51.486;6.610;2022-12-05T13:54:04;16.23;;;8.67;;
3004;SDS011;1512;51.486;6.610;2022-12-05T14:11:07;11.83;;;7.87;;
3004;SDS011;1512;51.486;6.610;2022-12-05T14:19:36;11.67;;;8.57;;
3004;SDS011;1512;51.486;6.610;2022-12-05T14:32:59;8.27;;;6.90;;
3004;SDS011;1512;51.486;6.610;2022-12-05T14:41:31;11.93;;;7.70;;
3004;SDS011;1512;51.486;6.610;2022-12-05T14:45:55;9.63;;;7.10;;
3004;SDS011;1512;51.486;6.610;2022-12-05T14:54:28;17.17;;;8.93;;
3004;SDS011;1512;51.486;6.610;2022-12-05T14:58:45;14.60;;;9.70;;
3004;SDS011;1512;51.486;6.610;2022-12-05T15:03:05;14.10;;;9.47;;
3004;SDS011;1512;51.486;6.610;2022-12-05T15:07:23;17.40;;;8.80;;
3004;SDS011;1512;51.486;6.610;2022-12-05T15:11:28;10.27;;;6.97;;
3004;SDS011;1512;51.486;6.610;2022-12-05T15:15:41;10.60;;;8.73;;
3004;SDS011;1512;51.486;6.610;2022-12-05T15:20:07;11.07;;;9.13;;
3004;SDS011;1512;51.486;6.610;2022-12-05T15:29:07;11.33;;;8.80;;
3004;SDS011;1512;51.486;6.610;2022-12-05T15:33:18;10.03;;;6.90;;
3004;SDS011;1512;51.486;6.610;2022-12-05T15:41:52;18.63;;;9.40;;
3004;SDS011;1512;51.486;6.610;2022-12-05T15:50:43;9.27;;;7.37;;
3004;SDS011;1512;51.486;6.610;2022-12-05T15:54:54;10.40;;;7.20;;
3004;SDS011;1512;51.486;6.610;2022-12-05T15:59:12;8.80;;;6.77;;
3004;SDS011;1512;51.486;6.610;2022-12-05T16:03:39;8.20;;;6.40;;
3004;SDS011;1512;51.486;6.610;2022-12-05T16:12:20;7.30;;;6.00;;
3004;SDS011;1512;51.486;6.610;2022-12-05T16:16:31;8.67;;;6.50;;
3004;SDS011;1512;51.486;6.610;2022-12-05T16:20:42;8.67;;;6.60;;
3004;SDS011;1512;51.486;6.610;2022-12-05T16:29:06;7.30;;;6.60;;
3004;SDS011;1512;51.486;6.610;2022-12-05T16:33:18;8.20;;;6.60;;
3004;SDS011;1512;51.486;6.610;2022-12-05T16:37:27;7.77;;;6.47;;
3004;SDS011;1512;51.486;6.610;2022-12-05T16:41:38;13.00;;;8.87;;
3004;SDS011;1512;51.486;6.610;2022-12-05T16:45:47;16.27;;;8.97;;
3004;SDS011;1512;51.486;6.610;2022-12-05T16:49:57;9.07;;;6.43;;
3004;SDS011;1512;51.486;6.610;2022-12-05T16:54:07;8.87;;;6.33;;
3004;SDS011;1512;51.486;6.610;2022-12-05T16:58:20;9.07;;;7.60;;
3004;SDS011;1512;51.486;6.610;2022-12-05T17:02:31;9.33;;;7.07;;
3004;SDS011;1512;51.486;6.610;2022-12-05T17:06:40;10.87;;;7.77;;
3004;SDS011;1512;51.486;6.610;2022-12-05T17:10:48;7.37;;;6.57;;
3004;SDS011;1512;51.486;6.610;2022-12-05T17:14:58;9.67;;;7.93;;
3004;SDS011;1512;51.486;6.610;2022-12-05T17:19:10;10.43;;;6.97;;
3004;SDS011;1512;51.486;6.610;2022-12-05T17:23:18;8.17;;;7.37;;
3004;SDS011;1512;51.486;6.610;2022-12-05T17:27:27;11.67;;;8.20;;
3004;SDS011;1512;51.486;6.610;2022-12-05T17:31:35;8.23;;;6.70;;
3004;SDS011;1512;51.486;6.610;2022-12-05T17:35:44;11.37;;;6.57;;
3004;SDS011;1512;51.486;6.610;2022-12-05T17:39:53;13.90;;;7.43;;
3004;SDS011;1512;51.486;6.610;2022-12-05T17:44:03;13.87;;;8.83;;
3004;SDS011;1512;51.486;6.610;2022-12-05T17:48:13;8.20;;;7.00;;
3004;SDS011;1512;51.486;6.610;2022-12-05T17:52:22;9.57;;;7.67;;
3004;SDS011;1512;51.486;6.610;2022-12-05T18:00:59;11.10;;;8.83;;
3004;SDS011;1512;51.486;6.610;2022-12-05T18:05:09;11.97;;;7.33;;
3004;SDS011;1512;51.486;6.610;2022-12-05T18:09:19;8.40;;;7.47;;
3004;SDS011;1512;51.486;6.610;2022-12-05T18:13:28;13.13;;;7.57;;
3004;SDS011;1512;51.486;6.610;2022-12-05T18:17:37;11.83;;;8.90;;
3004;SDS011;1512;51.486;6.610;2022-12-05T18:21:45;9.80;;;8.80;;
3004;SDS011;1512;51.486;6.610;2022-12-05T18:25:59;9.33;;;7.70;;
3004;SDS011;1512;51.486;6.610;2022-12-05T18:30:06;9.70;;;8.10;;
3004;SDS011;1512;51.486;6.610;2022-12-05T18:34:15;11.63;;;9.27;;
3004;SDS011;1512;51.486;6.610;2022-12-05T18:38:23;17.17;;;8.37;;
3004;SDS011;1512;51.486;6.610;2022-12-05T18:42:32;10.63;;;8.23;;
3004;SDS011;1512;51.486;6.610;2022-12-05T18:46:41;12.70;;;9.57;;
3004;SDS011;1512;51.486;6.610;2022-12-05T18:50:50;11.07;;;8.80;;
3004;SDS011;1512;51.486;6.610;2022-12-05T18:54:58;14.27;;;9.20;;
3004;SDS011;1512;51.486;6.610;2022-12-05T18:59:13;14.20;;;10.07;;
3004;SDS011;1512;51.486;6.610;2022-12-05T19:03:22;11.13;;;9.80;;
3004;SDS011;1512;51.486;6.610;2022-12-05T19:07:31;12.87;;;8.80;;
3004;SDS011;1512;51.486;6.610;2022-12-05T19:11:43;10.63;;;8.80;;
3004;SDS011;1512;51.486;6.610;2022-12-05T19:20:25;9.13;;;7.80;;
3004;SDS011;1512;51.486;6.610;2022-12-05T19:24:34;9.70;;;7.13;;
3004;SDS011;1512;51.486;6.610;2022-12-05T19:28:43;12.07;;;8.50;;
3004;SDS011;1512;51.486;6.610;2022-12-05T19:37:19;10.23;;;7.70;;
3004;SDS011;1512;51.486;6.610;2022-12-05T19:41:28;8.63;;;6.80;;
3004;SDS011;1512;51.486;6.610;2022-12-05T19:45:37;12.23;;;8.27;;
3004;SDS011;1512;51.486;6.610;2022-12-05T19:49:46;10.07;;;7.60;;
3004;SDS011;1512;51.486;6.610;2022-12-05T19:53:56;9.33;;;6.83;;
3004;SDS011;1512;51.486;6.610;2022-12-05T19:58:06;12.70;;;8.43;;
3004;SDS011;1512;51.486;6.610;2022-12-05T20:02:14;13.17;;;9.03;;
3004;SDS011;1512;51.486;6.610;2022-12-05T20:06:23;12.17;;;8.30;;
3004;SDS011;1512;51.486;6.610;2022-12-05T20:10:33;10.00;;;8.10;;
3004;SDS011;1512;51.486;6.610;2022-12-05T20:14:44;12.00;;;9.03;;
3004;SDS011;1512;51.486;6.610;2022-12-05T20:23:21;12.40;;;10.33;;
3004;SDS011;1512;51.486;6.610;2022-12-05T20:27:29;14.57;;;11.87;;
3004;SDS011;1512;51.486;6.610;2022-12-05T20:31:40;16.20;;;9.60;;
3004;SDS011;1512;51.486;6.610;2022-12-05T20:35:50;12.47;;;8.40;;
3004;SDS011;1512;51.486;6.610;2022-12-05T20:39:58;13.50;;;9.07;;
3004;SDS011;1512;51.486;6.610;2022-12-05T20:48:35;16.87;;;13.30;;
3004;SDS011;1512;51.486;6.610;2022-12-05T20:52:44;16.00;;;12.33;;
3004;SDS011;1512;51.486;6.610;2022-12-05T20:56:53;13.93;;;9.73;;
3004;SDS011;1512;51.486;6.610;2022-12-05T21:01:03;10.40;;;8.00;;
3004;SDS011;1512;51.486;6.610;2022-12-05T21:05:14;15.60;;;9.00;;
3004;SDS011;1512;51.486;6.610;2022-12-05T21:09:23;10.73;;;8.13;;
3004;SDS011;1512;51.486;6.610;2022-12-05T21:13:36;12.40;;;9.50;;
3004;SDS011;1512;51.486;6.610;2022-12-05T21:17:46;11.50;;;8.00;;
3004;SDS011;1512;51.486;6.610;2022-12-05T21:21:55;13.10;;;9.03;;
3004;SDS011;1512;51.486;6.610;2022-12-05T21:26:05;12.47;;;9.30;;
3004;SDS011;1512;51.486;6.610;2022-12-05T21:30:15;8.70;;;7.80;;
3004;SDS011;1512;51.486;6.610;2022-12-05T21:34:24;12.13;;;9.17;;
3004;SDS011;1512;51.486;6.610;2022-12-05T21:38:32;10.93;;;8.30;;
3004;SDS011;1512;51.486;6.610;2022-12-05T21:42:42;11.43;;;8.07;;
3004;SDS011;1512;51.486;6.610;2022-12-05T21:46:50;11.93;;;9.13;;
3004;SDS011;1512;51.486;6.610;2022-12-05T21:50:59;12.53;;;9.40;;
3004;SDS011;1512;51.486;6.610;2022-12-05T21:55:10;12.20;;;8.90;;
3004;SDS011;1512;51.486;6.610;2022-12-05T21:59:18;10.83;;;8.10;;
3004;SDS011;1512;51.486;6.610;2022-12-05T22:03:27;12.57;;;9.40;;
3004;SDS011;1512;51.486;6.610;2022-12-05T22:07:36;16.40;;;9.77;;
3004;SDS011;1512;51.486;6.610;2022-12-05T22:20:41;13.60;;;9.67;;
3004;SDS011;1512;51.486;6.610;2022-12-05T22:24:49;9.97;;;8.37;;
3004;SDS011;1512;51.486;6.610;2022-12-05T22:33:26;14.57;;;11.10;;
3004;SDS011;1512;51.486;6.610;2022-12-05T22:37:37;18.57;;;10.23;;
3004;SDS011;1512;51.486;6.610;2022-12-05T22:41:45;10.77;;;8.03;;
3004;SDS011;1512;51.486;6.610;2022-12-05T22:45:54;13.60;;;9.93;;
3004;SDS011;1512;51.486;6.610;2022-12-05T22:50:04;24.50;;;9.80;;
3004;SDS011;1512;51.486;6.610;2022-12-05T22:54:13;12.93;;;9.63;;
3004;SDS011;1512;51.486;6.610;2022-12-05T23:02:51;11.80;;;10.00;;
3004;SDS011;1512;51.486;6.610;2022-12-05T23:06:59;14.20;;;9.73;;
3004;SDS011;1512;51.486;6.610;2022-12-05T23:11:08;14.77;;;9.80;;
3004;SDS011;1512;51.486;6.610;2022-12-05T23:15:18;13.50;;;9.27;;
3004;SDS011;1512;51.486;6.610;2022-12-05T23:19:27;15.57;;;10.90;;
3004;SDS011;1512;51.486;6.610;2022-12-05T23:23:35;17.13;;;9.40;;
3004;SDS011;1512;51.486;6.610;2022-12-05T23:27:46;12.90;;;8.87;;
3004;SDS011;1512;51.486;6.610;2022-12-05T23:31:54;14.47;;;9.30;;
3004;SDS011;1512;51.486;6.610;2022-12-05T23:36:03;14.53;;;9.97;;
3004;SDS011;1512;51.486;6.610;2022-12-05T23:40:32;12.23;;;9.70;;
3004;SDS011;1512;51.486;6.610;2022-12-05T23:44:41;15.07;;;10.27;;
3004;SDS011;1512;51.486;6.610;2022-12-05T23:48:49;16.77;;;10.67;;
3004;SDS011;1512;51.486;6.610;2022-12-05T23:52:59;16.80;;;11.60;;
3004;SDS011;1512;51.486;6.610;2022-12-05T23:57:08;13.23;;;8.50;;
